createdAt,value
2019-03-12T00:00:55.171Z,3.08
2019-03-12T00:15:53.673Z,2.50
2019-03-12T00:30:53.519Z,1.98
2019-03-12T00:45:51.514Z,2.25
2019-03-12T01:00:51.355Z,3.08
2019-03-12T01:15:53.920Z,2.02
2019-03-12T01:30:53.717Z,3.00
2019-03-12T01:45:50.685Z,1.77
2019-03-12T02:00:50.639Z,1.92
2019-03-12T02:15:50.964Z,1.90
2019-03-12T02:30:51.109Z,1.90
2019-03-12T02:45:51.913Z,1.45
2019-03-12T03:00:52.079Z,1.85
2019-03-12T03:15:51.285Z,1.10
2019-03-12T03:30:53.123Z,1.40
2019-03-12T03:45:51.157Z,1.22
2019-03-12T04:00:52.111Z,1.35
2019-03-12T04:15:51.415Z,1.70
2019-03-12T04:30:51.409Z,1.50
2019-03-12T04:45:51.337Z,1.85
2019-03-12T05:00:51.185Z,1.75
2019-03-12T05:15:51.512Z,2.50
2019-03-12T05:30:51.622Z,3.20
2019-03-12T05:45:51.557Z,4.78
2019-03-12T06:00:51.375Z,5.12
2019-03-12T06:15:53.218Z,6.95
2019-03-12T07:01:00.683Z,10.10
2019-03-12T07:15:55.079Z,9.75
2019-03-12T07:45:54.978Z,9.20
2019-03-12T08:15:56.224Z,10.82
2019-03-12T08:45:58.651Z,13.08
2019-03-12T09:15:57.447Z,12.07
2019-03-12T10:15:56.858Z,9.43
2019-03-12T11:00:51.524Z,11.00
2019-03-12T11:15:50.896Z,12.15
2019-03-12T11:30:51.845Z,15.15
2019-03-12T11:45:51.748Z,11.85
2019-03-12T12:15:51.148Z,12.05
2019-03-12T12:30:52.276Z,5.30
2019-03-12T12:45:50.889Z,4.70
2019-03-12T13:00:50.891Z,5.03
2019-03-12T13:15:51.257Z,6.87
2019-03-12T13:30:51.316Z,6.30
2019-03-12T13:45:51.149Z,7.05
2019-03-12T14:00:50.857Z,4.30
2019-03-12T14:15:53.636Z,2.35
2019-03-12T14:30:51.428Z,4.42
2019-03-12T14:45:51.389Z,3.33
2019-03-12T15:00:51.204Z,4.70
2019-03-12T15:15:52.375Z,3.00
2019-03-12T15:30:51.780Z,2.30
2019-03-12T15:45:51.725Z,1.77
2019-03-12T16:00:51.616Z,1.70
2019-03-12T16:15:50.962Z,2.33
2019-03-12T16:30:50.962Z,1.40
2019-03-12T16:45:50.912Z,3.35
2019-03-12T17:00:54.195Z,1.85
2019-03-12T17:15:54.711Z,2.35
2019-03-12T17:30:53.232Z,3.95
2019-03-12T17:45:51.052Z,4.90
2019-03-12T18:00:51.138Z,3.00
2019-03-12T18:15:51.600Z,6.55
2019-03-12T18:30:51.678Z,7.85
2019-03-12T18:45:53.097Z,7.80
2019-03-12T19:00:51.413Z,8.80
2019-03-12T19:15:51.866Z,10.55
2019-03-12T19:30:51.649Z,11.18
2019-03-12T19:45:51.617Z,3.80
2019-03-12T20:00:57.963Z,4.37
2019-03-12T21:30:52.851Z,6.30
2019-03-12T21:45:53.288Z,7.20
2019-03-12T22:00:53.575Z,8.68
2019-03-12T22:15:53.586Z,7.92
2019-03-12T22:30:53.454Z,16.27
2019-03-12T22:45:53.582Z,17.42
2019-03-12T23:00:51.512Z,16.60
2019-03-12T23:15:50.733Z,16.12
2019-03-12T23:30:52.716Z,14.20
2019-03-12T23:45:53.564Z,14.47
